This is the latest recevied weather packets stored in our database for station/object WMSA. If no packets are shown the sender has not sent any weather packets the latest 10 day(s).
| Time | Temp. | Humidity | Pressure | Rain* | Wind** | Luminosity | Snow |
|---|---|---|---|---|---|---|---|
| 1777770590 | 27.78° C | 83% | 1009 hPa | - | - | - | - |
| 1777766994 | 26.67° C | 88% | 1008 hPa | - | - | - | - |
| 1777763390 | 25.56° C | 94% | 1008 hPa | - | - | - | - |
| 1777759790 | 25.56° C | 94% | 1007 hPa | - | - | - | - |
| 1777756189 | 25.56° C | 94% | 1007 hPa | - | - | - | - |
| 1777752589 | 25.56° C | 94% | 1008 hPa | - | - | - | - |
| 1777748998 | 26.67° C | 94% | 1008 hPa | - | - | - | - |
| 1777745389 | 26.67° C | 88% | 1009 hPa | - | - | - | - |
| 1777741792 | 26.67° C | 94% | 1009 hPa | - | - | - | - |
| 1777740589 | 26.67° C | 94% | 1010 hPa | - | - | - | - |
| 1777740004 | 25° C | 90% | 1010.8 hPa | - | - | - | - |
| 1777738189 | 26.67° C | 94% | 1010 hPa | - | - | - | - |
| 1777734589 | 26.67° C | 94% | 1009 hPa | - | - | - | - |
| 1777730994 | 27.78° C | 88% | 1009 hPa | - | - | - | - |
| 1777727389 | 27.78° C | 88% | 1008 hPa | - | - | - | - |
| 1777723793 | 27.78° C | 88% | 1007 hPa | - | - | - | - |
| 1777720190 | 28.89° C | 83% | 1006 hPa | - | - | - | - |
| 1777716593 | 28.89° C | 79% | 1006 hPa | - | - | - | - |
| 1777712988 | 27.78° C | 83% | 1005 hPa | - | - | - | - |
| 1777709388 | 28.89° C | 83% | 1006 hPa | - | - | - | - |
| 1777705789 | 28.89° C | 79% | 1007 hPa | - | - | - | - |
| 1777702783 | 35° C | 49% | 1007 hPa | - | - | - | - |
| 1777702193 | 35° C | 53% | 1007 hPa | - | - | - | - |
| 1777698589 | 33.89° C | 56% | 1008 hPa | - | - | - | - |
| 1777694988 | 31.67° C | 62% | 1010 hPa | - | - | - | - |
* Rain since midnight (hover to see other rain measurements)
** Current wind speed in m/s (hover to see current wind gust speed)